sensor_id;sensor_type;location;lat;lon;timestamp;P1;P2;P0
66195;PMS7003;53000;45.182;5.736;2023-12-07T00:01:05;31.50;26.00;20.25
66195;PMS7003;53000;45.182;5.736;2023-12-07T00:03:30;35.75;31.00;20.00
66195;PMS7003;53000;45.182;5.736;2023-12-07T00:05:56;32.00;25.75;20.25
66195;PMS7003;53000;45.182;5.736;2023-12-07T00:08:21;34.00;30.75;20.25
66195;PMS7003;53000;45.182;5.736;2023-12-07T00:10:46;30.00;24.50;17.75
66195;PMS7003;53000;45.182;5.736;2023-12-07T00:13:12;30.50;25.75;16.25
66195;PMS7003;53000;45.182;5.736;2023-12-07T00:15:37;32.00;25.50;18.25
66195;PMS7003;53000;45.182;5.736;2023-12-07T00:18:02;27.75;25.00;18.00
66195;PMS7003;53000;45.182;5.736;2023-12-07T00:20:29;29.25;27.25;21.25
66195;PMS7003;53000;45.182;5.736;2023-12-07T00:22:54;27.75;22.25;12.50
66195;PMS7003;53000;45.182;5.736;2023-12-07T00:25:23;27.75;27.25;19.50
66195;PMS7003;53000;45.182;5.736;2023-12-07T00:27:48;30.75;27.50;20.50
66195;PMS7003;53000;45.182;5.736;2023-12-07T00:30:14;26.50;25.00;18.00
66195;PMS7003;53000;45.182;5.736;2023-12-07T00:32:39;35.25;27.25;18.50
66195;PMS7003;53000;45.182;5.736;2023-12-07T00:35:08;26.50;19.00;16.50
66195;PMS7003;53000;45.182;5.736;2023-12-07T00:37:34;30.75;26.00;21.00
66195;PMS7003;53000;45.182;5.736;2023-12-07T00:40:00;30.25;23.50;20.00
66195;PMS7003;53000;45.182;5.736;2023-12-07T00:42:26;29.00;26.50;18.50
66195;PMS7003;53000;45.182;5.736;2023-12-07T00:44:52;29.00;25.25;20.25
66195;PMS7003;53000;45.182;5.736;2023-12-07T00:47:17;33.75;25.75;17.50
66195;PMS7003;53000;45.182;5.736;2023-12-07T00:49:43;40.75;29.50;20.25
66195;PMS7003;53000;45.182;5.736;2023-12-07T00:52:08;24.75;21.75;16.25
66195;PMS7003;53000;45.182;5.736;2023-12-07T00:54:34;30.25;27.00;20.25
66195;PMS7003;53000;45.182;5.736;2023-12-07T00:56:59;32.75;29.25;19.50
66195;PMS7003;53000;45.182;5.736;2023-12-07T00:59:25;34.75;29.50;20.75
66195;PMS7003;53000;45.182;5.736;2023-12-07T01:01:50;28.25;27.50;20.75
66195;PMS7003;53000;45.182;5.736;2023-12-07T01:04:15;33.75;28.75;20.75
66195;PMS7003;53000;45.182;5.736;2023-12-07T01:06:41;30.00;26.75;20.00
66195;PMS7003;53000;45.182;5.736;2023-12-07T01:09:07;37.50;33.75;21.25
66195;PMS7003;53000;45.182;5.736;2023-12-07T01:11:38;30.50;26.25;17.00
66195;PMS7003;53000;45.182;5.736;2023-12-07T01:14:04;33.25;29.25;20.00
66195;PMS7003;53000;45.182;5.736;2023-12-07T01:16:29;34.75;26.25;20.00
66195;PMS7003;53000;45.182;5.736;2023-12-07T01:18:55;34.50;30.50;20.25
66195;PMS7003;53000;45.182;5.736;2023-12-07T01:21:20;35.25;28.50;18.25
66195;PMS7003;53000;45.182;5.736;2023-12-07T01:23:46;36.00;28.75;19.50
66195;PMS7003;53000;45.182;5.736;2023-12-07T01:26:11;28.50;27.00;19.00
66195;PMS7003;53000;45.182;5.736;2023-12-07T01:28:36;31.00;28.00;21.50
66195;PMS7003;53000;45.182;5.736;2023-12-07T01:31:02;32.50;27.25;21.75
66195;PMS7003;53000;45.182;5.736;2023-12-07T01:33:27;35.75;32.25;21.25
66195;PMS7003;53000;45.182;5.736;2023-12-07T01:35:52;35.00;24.50;19.25
66195;PMS7003;53000;45.182;5.736;2023-12-07T01:38:18;34.75;29.25;19.50
66195;PMS7003;53000;45.182;5.736;2023-12-07T01:40:44;29.75;26.25;19.25
66195;PMS7003;53000;45.182;5.736;2023-12-07T01:43:09;30.00;28.00;20.00
66195;PMS7003;53000;45.182;5.736;2023-12-07T01:45:35;31.00;23.75;17.75
66195;PMS7003;53000;45.182;5.736;2023-12-07T01:48:00;32.25;26.75;19.00
66195;PMS7003;53000;45.182;5.736;2023-12-07T01:50:26;28.25;24.00;18.00
66195;PMS7003;53000;45.182;5.736;2023-12-07T01:52:54;31.25;30.00;20.00
66195;PMS7003;53000;45.182;5.736;2023-12-07T01:55:25;32.75;29.00;21.50
66195;PMS7003;53000;45.182;5.736;2023-12-07T01:57:52;26.50;21.75;18.25
66195;PMS7003;53000;45.182;5.736;2023-12-07T02:00:17;34.00;27.75;18.50
66195;PMS7003;53000;45.182;5.736;2023-12-07T02:02:46;29.50;26.25;19.75
66195;PMS7003;53000;45.182;5.736;2023-12-07T02:05:12;34.25;24.75;18.00
66195;PMS7003;53000;45.182;5.736;2023-12-07T02:07:39;27.00;23.50;17.25
66195;PMS7003;53000;45.182;5.736;2023-12-07T02:10:06;26.75;25.00;18.50
66195;PMS7003;53000;45.182;5.736;2023-12-07T02:12:32;28.00;25.75;19.25
66195;PMS7003;53000;45.182;5.736;2023-12-07T02:14:59;29.00;25.75;16.75
66195;PMS7003;53000;45.182;5.736;2023-12-07T02:20:20;26.75;24.50;18.75
66195;PMS7003;53000;45.182;5.736;2023-12-07T02:22:49;28.25;23.50;17.75
66195;PMS7003;53000;45.182;5.736;2023-12-07T02:25:18;31.25;24.50;18.00
66195;PMS7003;53000;45.182;5.736;2023-12-07T02:27:50;26.50;22.25;16.75
66195;PMS7003;53000;45.182;5.736;2023-12-07T02:30:15;29.25;27.50;19.75
66195;PMS7003;53000;45.182;5.736;2023-12-07T02:32:41;24.25;21.00;17.25
66195;PMS7003;53000;45.182;5.736;2023-12-07T02:35:09;27.25;25.50;19.00
66195;PMS7003;53000;45.182;5.736;2023-12-07T02:37:39;36.75;26.75;17.00
66195;PMS7003;53000;45.182;5.736;2023-12-07T02:40:08;30.50;23.75;18.50
66195;PMS7003;53000;45.182;5.736;2023-12-07T02:42:40;26.25;22.75;17.50
66195;PMS7003;53000;45.182;5.736;2023-12-07T02:45:08;25.00;22.25;16.75
66195;PMS7003;53000;45.182;5.736;2023-12-07T02:47:34;25.25;19.50;13.50
66195;PMS7003;53000;45.182;5.736;2023-12-07T02:50:00;25.25;22.75;15.00
66195;PMS7003;53000;45.182;5.736;2023-12-07T02:52:26;25.50;23.00;18.25
66195;PMS7003;53000;45.182;5.736;2023-12-07T02:54:51;23.75;19.25;15.00
66195;PMS7003;53000;45.182;5.736;2023-12-07T02:57:16;28.25;24.75;18.75
66195;PMS7003;53000;45.182;5.736;2023-12-07T02:59:42;24.75;19.25;14.50
66195;PMS7003;53000;45.182;5.736;2023-12-07T03:02:07;23.25;20.00;15.00
66195;PMS7003;53000;45.182;5.736;2023-12-07T03:04:32;25.75;19.00;13.00
66195;PMS7003;53000;45.182;5.736;2023-12-07T03:06:58;23.00;19.25;14.25
66195;PMS7003;53000;45.182;5.736;2023-12-07T03:09:24;19.50;17.50;13.25
66195;PMS7003;53000;45.182;5.736;2023-12-07T03:11:49;26.75;20.75;17.50
66195;PMS7003;53000;45.182;5.736;2023-12-07T03:14:15;25.25;19.75;14.00
66195;PMS7003;53000;45.182;5.736;2023-12-07T03:16:40;21.25;20.25;15.50
66195;PMS7003;53000;45.182;5.736;2023-12-07T03:19:06;22.25;17.75;14.75
66195;PMS7003;53000;45.182;5.736;2023-12-07T03:21:31;18.50;17.75;14.00
66195;PMS7003;53000;45.182;5.736;2023-12-07T03:23:56;26.50;21.25;15.75
66195;PMS7003;53000;45.182;5.736;2023-12-07T03:26:22;20.00;17.75;14.00
66195;PMS7003;53000;45.182;5.736;2023-12-07T03:28:47;25.50;20.75;15.25
66195;PMS7003;53000;45.182;5.736;2023-12-07T03:31:12;22.25;16.75;13.75
66195;PMS7003;53000;45.182;5.736;2023-12-07T03:33:38;25.75;20.75;15.00
66195;PMS7003;53000;45.182;5.736;2023-12-07T03:36:03;23.25;18.75;12.00
66195;PMS7003;53000;45.182;5.736;2023-12-07T03:38:30;21.25;17.75;13.75
66195;PMS7003;53000;45.182;5.736;2023-12-07T03:40:55;20.25;18.00;13.25
66195;PMS7003;53000;45.182;5.736;2023-12-07T03:43:21;21.75;18.25;14.00
66195;PMS7003;53000;45.182;5.736;2023-12-07T03:45:46;31.50;21.75;15.75
66195;PMS7003;53000;45.182;5.736;2023-12-07T03:48:12;24.50;21.00;13.75
66195;PMS7003;53000;45.182;5.736;2023-12-07T03:50:37;29.00;22.00;14.50
66195;PMS7003;53000;45.182;5.736;2023-12-07T03:53:03;25.50;22.75;17.00
66195;PMS7003;53000;45.182;5.736;2023-12-07T03:55:28;28.50;23.75;18.50
66195;PMS7003;53000;45.182;5.736;2023-12-07T03:57:53;23.00;21.50;16.25
66195;PMS7003;53000;45.182;5.736;2023-12-07T04:00:19;22.50;19.75;15.25
66195;PMS7003;53000;45.182;5.736;2023-12-07T04:02:44;30.75;23.50;18.75
66195;PMS7003;53000;45.182;5.736;2023-12-07T04:05:09;23.25;22.50;17.25
66195;PMS7003;53000;45.182;5.736;2023-12-07T04:07:35;30.50;28.00;20.25
66195;PMS7003;53000;45.182;5.736;2023-12-07T04:10:00;25.00;21.75;16.75
66195;PMS7003;53000;45.182;5.736;2023-12-07T04:12:25;22.25;18.00;14.00
66195;PMS7003;53000;45.182;5.736;2023-12-07T04:14:51;21.75;19.25;14.75
66195;PMS7003;53000;45.182;5.736;2023-12-07T04:17:19;27.75;22.00;16.75
66195;PMS7003;53000;45.182;5.736;2023-12-07T04:19:44;26.50;23.50;17.25
66195;PMS7003;53000;45.182;5.736;2023-12-07T04:22:10;26.50;22.75;18.00
66195;PMS7003;53000;45.182;5.736;2023-12-07T04:24:35;29.25;24.50;18.00
66195;PMS7003;53000;45.182;5.736;2023-12-07T04:27:00;29.75;26.00;17.50
66195;PMS7003;53000;45.182;5.736;2023-12-07T04:29:26;24.75;21.25;15.75
66195;PMS7003;53000;45.182;5.736;2023-12-07T04:31:51;28.00;25.50;17.00
66195;PMS7003;53000;45.182;5.736;2023-12-07T04:34:16;29.50;22.00;16.50
66195;PMS7003;53000;45.182;5.736;2023-12-07T04:36:42;30.25;21.50;15.25
66195;PMS7003;53000;45.182;5.736;2023-12-07T04:39:07;21.00;18.75;13.00
66195;PMS7003;53000;45.182;5.736;2023-12-07T04:41:33;23.50;21.25;16.50
66195;PMS7003;53000;45.182;5.736;2023-12-07T04:43:58;26.50;21.50;16.75
66195;PMS7003;53000;45.182;5.736;2023-12-07T04:46:23;19.00;17.00;13.25
66195;PMS7003;53000;45.182;5.736;2023-12-07T04:48:49;24.50;20.00;15.25
66195;PMS7003;53000;45.182;5.736;2023-12-07T04:51:14;26.50;22.50;14.00
66195;PMS7003;53000;45.182;5.736;2023-12-07T04:53:39;26.00;21.50;15.50
66195;PMS7003;53000;45.182;5.736;2023-12-07T04:56:05;26.25;22.75;18.00
66195;PMS7003;53000;45.182;5.736;2023-12-07T04:58:31;22.00;18.75;13.75
66195;PMS7003;53000;45.182;5.736;2023-12-07T05:00:56;27.75;20.00;16.25
66195;PMS7003;53000;45.182;5.736;2023-12-07T05:03:22;26.75;19.25;14.00
66195;PMS7003;53000;45.182;5.736;2023-12-07T05:05:47;24.00;19.50;14.00
66195;PMS7003;53000;45.182;5.736;2023-12-07T05:08:14;14.75;9.75;5.75
66195;PMS7003;53000;45.182;5.736;2023-12-07T05:10:40;19.75;19.00;10.00
66195;PMS7003;53000;45.182;5.736;2023-12-07T05:13:05;20.00;16.75;12.50
66195;PMS7003;53000;45.182;5.736;2023-12-07T05:15:31;18.00;16.25;12.50
66195;PMS7003;53000;45.182;5.736;2023-12-07T05:17:56;21.75;16.50;12.25
66195;PMS7003;53000;45.182;5.736;2023-12-07T05:20:21;16.75;16.25;12.25
66195;PMS7003;53000;45.182;5.736;2023-12-07T05:22:49;20.00;15.25;12.50
66195;PMS7003;53000;45.182;5.736;2023-12-07T05:25:15;20.50;18.25;13.00
66195;PMS7003;53000;45.182;5.736;2023-12-07T05:27:40;20.25;19.25;13.00
66195;PMS7003;53000;45.182;5.736;2023-12-07T05:30:06;17.75;17.50;13.00
66195;PMS7003;53000;45.182;5.736;2023-12-07T05:32:32;20.25;17.50;13.75
66195;PMS7003;53000;45.182;5.736;2023-12-07T05:34:58;17.25;14.00;12.50
66195;PMS7003;53000;45.182;5.736;2023-12-07T05:37:23;16.00;14.50;11.00
66195;PMS7003;53000;45.182;5.736;2023-12-07T05:39:48;14.50;14.50;10.75
66195;PMS7003;53000;45.182;5.736;2023-12-07T05:42:14;15.00;9.75;8.50
66195;PMS7003;53000;45.182;5.736;2023-12-07T05:44:39;13.50;11.50;9.00
66195;PMS7003;53000;45.182;5.736;2023-12-07T05:47:05;13.50;11.50;8.00
66195;PMS7003;53000;45.182;5.736;2023-12-07T05:49:30;18.75;14.75;10.00
66195;PMS7003;53000;45.182;5.736;2023-12-07T05:51:55;13.50;13.25;11.75
66195;PMS7003;53000;45.182;5.736;2023-12-07T05:54:21;21.50;15.25;12.50
66195;PMS7003;53000;45.182;5.736;2023-12-07T05:56:47;16.25;14.50;9.75
66195;PMS7003;53000;45.182;5.736;2023-12-07T05:59:12;21.50;16.25;14.00
66195;PMS7003;53000;45.182;5.736;2023-12-07T06:01:38;22.50;16.75;13.00
66195;PMS7003;53000;45.182;5.736;2023-12-07T06:04:03;19.25;17.00;13.25
66195;PMS7003;53000;45.182;5.736;2023-12-07T06:06:29;28.50;23.75;14.00
66195;PMS7003;53000;45.182;5.736;2023-12-07T06:08:54;19.00;17.25;13.75
66195;PMS7003;53000;45.182;5.736;2023-12-07T06:11:19;23.50;19.50;15.00
66195;PMS7003;53000;45.182;5.736;2023-12-07T06:13:45;19.75;16.00;13.00
66195;PMS7003;53000;45.182;5.736;2023-12-07T06:16:13;21.00;20.00;15.25
66195;PMS7003;53000;45.182;5.736;2023-12-07T06:18:39;25.00;20.75;16.25
66195;PMS7003;53000;45.182;5.736;2023-12-07T06:21:05;21.75;15.00;9.75
66195;PMS7003;53000;45.182;5.736;2023-12-07T06:23:31;19.25;14.25;10.00
66195;PMS7003;53000;45.182;5.736;2023-12-07T06:25:56;15.00;12.25;9.75
66195;PMS7003;53000;45.182;5.736;2023-12-07T06:28:22;20.50;17.00;12.50
66195;PMS7003;53000;45.182;5.736;2023-12-07T06:30:47;20.00;17.25;12.00
66195;PMS7003;53000;45.182;5.736;2023-12-07T06:33:12;23.25;21.00;15.75
66195;PMS7003;53000;45.182;5.736;2023-12-07T06:35:37;23.75;21.25;14.00
66195;PMS7003;53000;45.182;5.736;2023-12-07T06:38:03;21.25;17.00;13.75
66195;PMS7003;53000;45.182;5.736;2023-12-07T06:40:29;29.75;21.25;14.75
66195;PMS7003;53000;45.182;5.736;2023-12-07T06:42:56;20.50;19.50;14.50
66195;PMS7003;53000;45.182;5.736;2023-12-07T06:45:21;26.75;19.25;16.50
66195;PMS7003;53000;45.182;5.736;2023-12-07T06:47:47;26.00;24.25;16.00
66195;PMS7003;53000;45.182;5.736;2023-12-07T06:50:12;24.50;22.50;17.50
66195;PMS7003;53000;45.182;5.736;2023-12-07T06:52:38;26.50;20.00;14.00
66195;PMS7003;53000;45.182;5.736;2023-12-07T06:55:04;27.50;21.25;16.00
66195;PMS7003;53000;45.182;5.736;2023-12-07T06:57:30;24.50;17.50;15.00
66195;PMS7003;53000;45.182;5.736;2023-12-07T06:59:57;25.25;23.00;16.00
66195;PMS7003;53000;45.182;5.736;2023-12-07T07:02:22;21.50;20.75;15.00
66195;PMS7003;53000;45.182;5.736;2023-12-07T07:04:50;20.50;19.00;12.25
66195;PMS7003;53000;45.182;5.736;2023-12-07T07:07:16;24.25;19.00;14.25
66195;PMS7003;53000;45.182;5.736;2023-12-07T07:09:42;15.00;14.25;12.00
66195;PMS7003;53000;45.182;5.736;2023-12-07T07:12:07;24.25;20.25;14.00
66195;PMS7003;53000;45.182;5.736;2023-12-07T07:14:33;25.25;20.50;14.75
66195;PMS7003;53000;45.182;5.736;2023-12-07T07:16:59;21.00;18.25;10.50
66195;PMS7003;53000;45.182;5.736;2023-12-07T07:19:24;24.00;18.75;14.75
66195;PMS7003;53000;45.182;5.736;2023-12-07T07:21:50;27.00;21.00;15.50
66195;PMS7003;53000;45.182;5.736;2023-12-07T07:24:15;26.00;23.50;16.25
66195;PMS7003;53000;45.182;5.736;2023-12-07T07:26:41;24.75;19.50;13.75
66195;PMS7003;53000;45.182;5.736;2023-12-07T07:29:06;27.75;24.25;17.50
66195;PMS7003;53000;45.182;5.736;2023-12-07T07:31:32;23.25;21.00;16.00
66195;PMS7003;53000;45.182;5.736;2023-12-07T07:33:57;21.00;15.00;9.75
66195;PMS7003;53000;45.182;5.736;2023-12-07T07:36:22;19.25;19.25;13.50
66195;PMS7003;53000;45.182;5.736;2023-12-07T07:38:48;21.75;20.00;14.25
66195;PMS7003;53000;45.182;5.736;2023-12-07T07:41:13;29.50;21.25;16.00
66195;PMS7003;53000;45.182;5.736;2023-12-07T07:43:39;24.50;21.75;16.25
66195;PMS7003;53000;45.182;5.736;2023-12-07T07:46:04;22.50;19.50;14.25
66195;PMS7003;53000;45.182;5.736;2023-12-07T07:48:30;23.75;19.75;14.00
66195;PMS7003;53000;45.182;5.736;2023-12-07T07:50:56;23.50;19.50;13.25
66195;PMS7003;53000;45.182;5.736;2023-12-07T07:53:23;31.00;25.00;16.25
66195;PMS7003;53000;45.182;5.736;2023-12-07T07:55:48;34.50;27.50;17.75
66195;PMS7003;53000;45.182;5.736;2023-12-07T07:58:13;42.25;36.50;26.25
66195;PMS7003;53000;45.182;5.736;2023-12-07T08:00:39;33.50;27.25;19.75
66195;PMS7003;53000;45.182;5.736;2023-12-07T08:03:04;31.25;29.50;20.50
66195;PMS7003;53000;45.182;5.736;2023-12-07T08:05:30;25.00;20.75;15.75
66195;PMS7003;53000;45.182;5.736;2023-12-07T08:07:55;27.25;23.25;17.50
66195;PMS7003;53000;45.182;5.736;2023-12-07T08:10:21;22.00;17.25;13.00
66195;PMS7003;53000;45.182;5.736;2023-12-07T08:12:46;25.00;19.50;13.50
66195;PMS7003;53000;45.182;5.736;2023-12-07T08:15:11;16.75;14.00;11.00
66195;PMS7003;53000;45.182;5.736;2023-12-07T08:17:40;13.25;12.00;10.00
66195;PMS7003;53000;45.182;5.736;2023-12-07T08:20:07;15.50;13.75;10.00
66195;PMS7003;53000;45.182;5.736;2023-12-07T08:22:34;18.25;14.00;11.00
66195;PMS7003;53000;45.182;5.736;2023-12-07T08:24:59;18.00;14.75;12.50
66195;PMS7003;53000;45.182;5.736;2023-12-07T08:27:25;19.00;14.50;11.00
66195;PMS7003;53000;45.182;5.736;2023-12-07T08:29:50;14.50;13.00;10.00
66195;PMS7003;53000;45.182;5.736;2023-12-07T08:32:16;15.50;14.00;10.00
66195;PMS7003;53000;45.182;5.736;2023-12-07T08:34:43;18.25;16.00;12.00
66195;PMS7003;53000;45.182;5.736;2023-12-07T08:37:09;21.00;18.50;13.50
66195;PMS7003;53000;45.182;5.736;2023-12-07T08:39:34;18.75;16.50;12.50
66195;PMS7003;53000;45.182;5.736;2023-12-07T08:42:00;19.25;15.00;11.25
66195;PMS7003;53000;45.182;5.736;2023-12-07T08:44:26;17.00;15.00;11.25
66195;PMS7003;53000;45.182;5.736;2023-12-07T08:46:54;21.50;19.50;13.50
66195;PMS7003;53000;45.182;5.736;2023-12-07T08:49:19;21.50;18.50;14.00
66195;PMS7003;53000;45.182;5.736;2023-12-07T08:51:45;18.00;16.00;12.00
66195;PMS7003;53000;45.182;5.736;2023-12-07T08:54:10;17.00;13.00;10.75
66195;PMS7003;53000;45.182;5.736;2023-12-07T08:56:36;19.00;16.50;11.75
66195;PMS7003;53000;45.182;5.736;2023-12-07T08:59:02;13.00;13.00;11.00
66195;PMS7003;53000;45.182;5.736;2023-12-07T09:01:27;13.25;11.25;9.00
66195;PMS7003;53000;45.182;5.736;2023-12-07T09:03:53;11.50;11.50;10.50
66195;PMS7003;53000;45.182;5.736;2023-12-07T09:06:18;12.00;11.25;10.00
66195;PMS7003;53000;45.182;5.736;2023-12-07T09:08:43;19.75;16.25;11.50
66195;PMS7003;53000;45.182;5.736;2023-12-07T09:11:09;16.00;14.00;10.75
66195;PMS7003;53000;45.182;5.736;2023-12-07T09:13:35;15.00;13.00;9.25
66195;PMS7003;53000;45.182;5.736;2023-12-07T09:16:00;19.25;15.75;12.75
66195;PMS7003;53000;45.182;5.736;2023-12-07T09:18:26;13.00;11.33;9.00
66195;PMS7003;53000;45.182;5.736;2023-12-07T09:20:51;14.33;13.33;10.00
66195;PMS7003;53000;45.182;5.736;2023-12-07T09:23:16;14.25;11.25;7.00
66195;PMS7003;53000;45.182;5.736;2023-12-07T09:25:42;14.50;13.25;10.00
66195;PMS7003;53000;45.182;5.736;2023-12-07T09:28:08;15.00;14.00;10.00
66195;PMS7003;53000;45.182;5.736;2023-12-07T09:30:33;16.00;15.25;11.00
66195;PMS7003;53000;45.182;5.736;2023-12-07T09:32:59;15.00;12.00;10.33
66195;PMS7003;53000;45.182;5.736;2023-12-07T09:35:27;13.25;11.25;8.75
66195;PMS7003;53000;45.182;5.736;2023-12-07T09:37:53;12.33;11.00;8.67
66195;PMS7003;53000;45.182;5.736;2023-12-07T09:40:19;12.25;11.75;9.25
66195;PMS7003;53000;45.182;5.736;2023-12-07T09:42:46;16.67;13.33;10.00
66195;PMS7003;53000;45.182;5.736;2023-12-07T09:45:12;13.67;13.67;9.00
66195;PMS7003;53000;45.182;5.736;2023-12-07T09:47:43;8.67;8.00;7.33
66195;PMS7003;53000;45.182;5.736;2023-12-07T09:50:12;9.67;8.67;6.00
66195;PMS7003;53000;45.182;5.736;2023-12-07T09:52:42;9.33;9.00;7.00
66195;PMS7003;53000;45.182;5.736;2023-12-07T09:55:08;8.00;7.00;6.00
66195;PMS7003;53000;45.182;5.736;2023-12-07T09:57:34;9.00;8.33;6.00
66195;PMS7003;53000;45.182;5.736;2023-12-07T10:00:01;11.67;8.00;7.33
66195;PMS7003;53000;45.182;5.736;2023-12-07T10:02:27;12.67;11.00;8.67
66195;PMS7003;53000;45.182;5.736;2023-12-07T10:05:05;12.00;10.33;8.00
66195;PMS7003;53000;45.182;5.736;2023-12-07T10:07:32;6.67;6.33;5.33
66195;PMS7003;53000;45.182;5.736;2023-12-07T10:10:00;9.00;8.00;6.00
66195;PMS7003;53000;45.182;5.736;2023-12-07T10:12:26;10.67;9.00;6.00
66195;PMS7003;53000;45.182;5.736;2023-12-07T10:14:51;9.00;7.00;6.00
66195;PMS7003;53000;45.182;5.736;2023-12-07T10:17:16;7.00;7.00;5.00
66195;PMS7003;53000;45.182;5.736;2023-12-07T10:19:42;6.67;6.67;4.33
66195;PMS7003;53000;45.182;5.736;2023-12-07T10:22:13;13.00;10.25;7.75
66195;PMS7003;53000;45.182;5.736;2023-12-07T10:24:40;10.67;7.33;6.00
66195;PMS7003;53000;45.182;5.736;2023-12-07T10:27:06;12.33;12.00;9.00
66195;PMS7003;53000;45.182;5.736;2023-12-07T10:29:35;7.00;7.00;6.00
66195;PMS7003;53000;45.182;5.736;2023-12-07T10:32:02;7.33;7.33;6.00
66195;PMS7003;53000;45.182;5.736;2023-12-07T10:34:29;10.33;9.33;8.33
66195;PMS7003;53000;45.182;5.736;2023-12-07T10:36:55;10.00;8.00;6.67
66195;PMS7003;53000;45.182;5.736;2023-12-07T10:39:23;11.33;9.00;7.00
66195;PMS7003;53000;45.182;5.736;2023-12-07T10:41:49;12.00;9.67;8.67
66195;PMS7003;53000;45.182;5.736;2023-12-07T10:44:21;10.00;10.00;7.00
66195;PMS7003;53000;45.182;5.736;2023-12-07T10:46:50;12.00;10.00;8.33
66195;PMS7003;53000;45.182;5.736;2023-12-07T10:49:17;11.67;10.00;8.00
66195;PMS7003;53000;45.182;5.736;2023-12-07T10:52:00;13.33;9.33;8.00
66195;PMS7003;53000;45.182;5.736;2023-12-07T10:54:35;7.33;7.33;7.00
66195;PMS7003;53000;45.182;5.736;2023-12-07T10:57:09;12.33;10.00;8.33
66195;PMS7003;53000;45.182;5.736;2023-12-07T10:59:38;10.33;9.33;8.00
66195;PMS7003;53000;45.182;5.736;2023-12-07T11:02:07;8.33;7.33;6.00
66195;PMS7003;53000;45.182;5.736;2023-12-07T11:04:35;11.33;8.33;7.00
66195;PMS7003;53000;45.182;5.736;2023-12-07T11:07:03;12.67;11.00;9.67
66195;PMS7003;53000;45.182;5.736;2023-12-07T11:09:35;10.00;10.00;7.75
66195;PMS7003;53000;45.182;5.736;2023-12-07T11:12:13;9.75;8.75;7.25
66195;PMS7003;53000;45.182;5.736;2023-12-07T11:14:45;11.50;10.50;7.50
66195;PMS7003;53000;45.182;5.736;2023-12-07T11:17:11;9.00;7.50;4.50
66195;PMS7003;53000;45.182;5.736;2023-12-07T11:22:12;10.33;8.00;6.33
66195;PMS7003;53000;45.182;5.736;2023-12-07T11:24:38;13.00;12.00;8.25
66195;PMS7003;53000;45.182;5.736;2023-12-07T11:27:17;10.75;10.75;7.75
66195;PMS7003;53000;45.182;5.736;2023-12-07T11:29:43;10.50;7.00;4.25
66195;PMS7003;53000;45.182;5.736;2023-12-07T11:32:11;9.33;8.33;7.00
66195;PMS7003;53000;45.182;5.736;2023-12-07T11:34:37;11.67;8.00;5.00
66195;PMS7003;53000;45.182;5.736;2023-12-07T11:37:04;8.67;6.33;5.00
66195;PMS7003;53000;45.182;5.736;2023-12-07T11:39:35;7.00;7.00;6.00
66195;PMS7003;53000;45.182;5.736;2023-12-07T11:42:10;10.00;5.33;5.00
66195;PMS7003;53000;45.182;5.736;2023-12-07T11:44:40;4.00;4.00;3.00
66195;PMS7003;53000;45.182;5.736;2023-12-07T11:47:08;7.25;6.00;5.00
66195;PMS7003;53000;45.182;5.736;2023-12-07T11:49:34;3.67;3.67;3.00
66195;PMS7003;53000;45.182;5.736;2023-12-07T11:52:00;6.00;5.33;4.33
66195;PMS7003;53000;45.182;5.736;2023-12-07T11:54:36;4.00;4.00;3.00
66195;PMS7003;53000;45.182;5.736;2023-12-07T11:57:02;6.00;5.33;4.00
66195;PMS7003;53000;45.182;5.736;2023-12-07T11:59:28;3.33;3.33;3.00
66195;PMS7003;53000;45.182;5.736;2023-12-07T12:01:53;10.00;4.00;3.00
66195;PMS7003;53000;45.182;5.736;2023-12-07T12:04:19;3.33;3.33;2.33
66195;PMS7003;53000;45.182;5.736;2023-12-07T12:06:46;4.00;4.00;3.00
66195;PMS7003;53000;45.182;5.736;2023-12-07T12:09:15;6.00;4.25;3.75
66195;PMS7003;53000;45.182;5.736;2023-12-07T12:11:48;4.00;4.00;3.33
66195;PMS7003;53000;45.182;5.736;2023-12-07T12:14:17;3.33;3.33;2.33
66195;PMS7003;53000;45.182;5.736;2023-12-07T12:16:43;3.00;3.00;3.00
66195;PMS7003;53000;45.182;5.736;2023-12-07T12:19:10;4.00;4.00;3.67
66195;PMS7003;53000;45.182;5.736;2023-12-07T12:21:36;8.00;4.25;3.00
66195;PMS7003;53000;45.182;5.736;2023-12-07T12:24:04;1.00;1.00;0.00
66195;PMS7003;53000;45.182;5.736;2023-12-07T12:26:30;4.00;3.00;3.00
66195;PMS7003;53000;45.182;5.736;2023-12-07T12:28:57;3.00;3.00;3.00
66195;PMS7003;53000;45.182;5.736;2023-12-07T12:31:23;5.67;3.00;2.67
66195;PMS7003;53000;45.182;5.736;2023-12-07T12:33:48;5.00;2.00;2.00
66195;PMS7003;53000;45.182;5.736;2023-12-07T12:36:15;3.00;3.00;2.00
66195;PMS7003;53000;45.182;5.736;2023-12-07T12:38:43;3.00;3.00;2.00
66195;PMS7003;53000;45.182;5.736;2023-12-07T12:41:12;5.00;4.00;3.00
66195;PMS7003;53000;45.182;5.736;2023-12-07T12:43:37;3.33;3.33;3.00
66195;PMS7003;53000;45.182;5.736;2023-12-07T12:46:03;5.00;4.00;4.00
66195;PMS7003;53000;45.182;5.736;2023-12-07T12:48:28;4.33;4.33;3.33
66195;PMS7003;53000;45.182;5.736;2023-12-07T12:50:54;6.33;3.00;2.00
66195;PMS7003;53000;45.182;5.736;2023-12-07T12:53:20;8.00;5.33;4.00
66195;PMS7003;53000;45.182;5.736;2023-12-07T12:55:45;10.33;5.67;5.00
66195;PMS7003;53000;45.182;5.736;2023-12-07T12:58:12;10.75;9.00;6.25
66195;PMS7003;53000;45.182;5.736;2023-12-07T13:00:37;4.00;3.67;3.00
66195;PMS7003;53000;45.182;5.736;2023-12-07T13:03:04;3.67;3.67;3.00
66195;PMS7003;53000;45.182;5.736;2023-12-07T13:05:30;5.00;5.00;4.00
66195;PMS7003;53000;45.182;5.736;2023-12-07T13:07:57;5.33;5.00;4.00
66195;PMS7003;53000;45.182;5.736;2023-12-07T13:10:24;7.00;6.67;5.00
66195;PMS7003;53000;45.182;5.736;2023-12-07T13:12:50;10.00;5.33;4.33
66195;PMS7003;53000;45.182;5.736;2023-12-07T13:15:15;6.67;5.00;4.00
66195;PMS7003;53000;45.182;5.736;2023-12-07T13:17:42;4.33;3.67;3.00
66195;PMS7003;53000;45.182;5.736;2023-12-07T13:20:08;7.00;6.00;5.00
66195;PMS7003;53000;45.182;5.736;2023-12-07T13:22:41;8.75;7.75;7.00
66195;PMS7003;53000;45.182;5.736;2023-12-07T13:25:11;4.00;3.00;2.00
66195;PMS7003;53000;45.182;5.736;2023-12-07T13:27:39;3.00;3.00;3.00
66195;PMS7003;53000;45.182;5.736;2023-12-07T13:30:05;5.33;3.67;3.00
66195;PMS7003;53000;45.182;5.736;2023-12-07T13:32:34;3.00;3.00;2.67
66195;PMS7003;53000;45.182;5.736;2023-12-07T13:35:02;3.33;3.33;3.00
66195;PMS7003;53000;45.182;5.736;2023-12-07T13:37:28;5.67;5.00;3.00
66195;PMS7003;53000;45.182;5.736;2023-12-07T13:39:53;7.00;5.00;4.00
66195;PMS7003;53000;45.182;5.736;2023-12-07T13:42:23;5.00;4.00;3.67
66195;PMS7003;53000;45.182;5.736;2023-12-07T13:44:55;9.00;4.00;2.25
66195;PMS7003;53000;45.182;5.736;2023-12-07T13:47:23;5.00;4.75;4.00
66195;PMS7003;53000;45.182;5.736;2023-12-07T13:49:56;9.00;8.25;7.00
66195;PMS7003;53000;45.182;5.736;2023-12-07T13:52:22;9.50;7.75;6.25
66195;PMS7003;53000;45.182;5.736;2023-12-07T13:54:48;3.50;3.25;2.00
66195;PMS7003;53000;45.182;5.736;2023-12-07T13:57:14;7.75;7.00;5.00